sensor_id;sensor_type;location;lat;lon;timestamp;pressure;altitude;pressure_sealevel;temperature;humidity
23059;BME280;30585;51.502;7.218;2022-08-19T00:01:37;154162.00;;;15.77;100.00
23059;BME280;30585;51.502;7.218;2022-08-19T00:04:09;154139.94;;;15.68;100.00
23059;BME280;30585;51.502;7.218;2022-08-19T00:06:40;154116.59;;;15.59;100.00
23059;BME280;30585;51.502;7.218;2022-08-19T00:09:11;154139.94;;;15.68;100.00
23059;BME280;30585;51.502;7.218;2022-08-19T00:11:39;154129.59;;;15.64;100.00
23059;BME280;30585;51.502;7.218;2022-08-19T00:14:09;154116.59;;;15.59;100.00
23059;BME280;30585;51.502;7.218;2022-08-19T00:16:38;154137.38;;;15.67;100.00
23059;BME280;30585;51.502;7.218;2022-08-19T00:19:06;154129.59;;;15.64;100.00
23059;BME280;30585;51.502;7.218;2022-08-19T00:21:34;154123.13;;;15.62;100.00
23059;BME280;30585;51.502;7.218;2022-08-19T00:24:06;154112.72;;;15.57;100.00
23059;BME280;30585;51.502;7.218;2022-08-19T00:26:36;154108.84;;;15.56;100.00
23059;BME280;30585;51.502;7.218;2022-08-19T00:29:05;154106.25;;;15.55;100.00
23059;BME280;30585;51.502;7.218;2022-08-19T00:31:33;154091.97;;;15.49;100.00
23059;BME280;30585;51.502;7.218;2022-08-19T00:34:02;154098.44;;;15.52;100.00
23059;BME280;30585;51.502;7.218;2022-08-19T00:36:30;154050.50;;;15.33;100.00
23059;BME280;30585;51.502;7.218;2022-08-19T00:38:59;154080.31;;;15.45;100.00
23059;BME280;30585;51.502;7.218;2022-08-19T00:41:28;154045.31;;;15.31;100.00
23059;BME280;30585;51.502;7.218;2022-08-19T00:43:59;154060.84;;;15.37;100.00
23059;BME280;30585;51.502;7.218;2022-08-19T00:46:27;154067.31;;;15.39;100.00
23059;BME280;30585;51.502;7.218;2022-08-19T00:48:56;154064.78;;;15.38;100.00
23059;BME280;30585;51.502;7.218;2022-08-19T00:51:25;154055.66;;;15.35;100.00
23059;BME280;30585;51.502;7.218;2022-08-19T00:53:55;154054.38;;;15.34;100.00
23059;BME280;30585;51.502;7.218;2022-08-19T00:56:24;154036.25;;;15.27;100.00
23059;BME280;30585;51.502;7.218;2022-08-19T00:58:56;154038.84;;;15.28;100.00
23059;BME280;30585;51.502;7.218;2022-08-19T01:01:26;154043.97;;;15.30;100.00
23059;BME280;30585;51.502;7.218;2022-08-19T01:03:54;154041.44;;;15.29;100.00
23059;BME280;30585;51.502;7.218;2022-08-19T01:06:24;154037.50;;;15.27;100.00
23059;BME280;30585;51.502;7.218;2022-08-19T01:08:53;154028.44;;;15.24;100.00
23059;BME280;30585;51.502;7.218;2022-08-19T01:11:21;153975.31;;;15.03;100.00
23059;BME280;30585;51.502;7.218;2022-08-19T01:13:50;153989.56;;;15.08;100.00
23059;BME280;30585;51.502;7.218;2022-08-19T01:16:23;153989.56;;;15.08;100.00
23059;BME280;30585;51.502;7.218;2022-08-19T01:18:53;154003.81;;;15.14;100.00
23059;BME280;30585;51.502;7.218;2022-08-19T01:21:24;154011.56;;;15.17;100.00
23059;BME280;30585;51.502;7.218;2022-08-19T01:26:25;153955.84;;;14.95;100.00
23059;BME280;30585;51.502;7.218;2022-08-19T01:28:55;153926.03;;;14.83;100.00
23059;BME280;30585;51.502;7.218;2022-08-19T01:31:28;153955.84;;;14.95;100.00
23059;BME280;30585;51.502;7.218;2022-08-19T01:33:59;153961.03;;;14.97;100.00
23059;BME280;30585;51.502;7.218;2022-08-19T01:36:29;154005.09;;;15.15;100.00
23059;BME280;30585;51.502;7.218;2022-08-19T01:39:00;153979.19;;;15.04;100.00
23059;BME280;30585;51.502;7.218;2022-08-19T01:41:28;153961.03;;;14.97;100.00
23059;BME280;30585;51.502;7.218;2022-08-19T01:43:56;153962.31;;;14.98;100.00
23059;BME280;30585;51.502;7.218;2022-08-19T01:46:45;153949.38;;;14.92;100.00
23059;BME280;30585;51.502;7.218;2022-08-19T01:49:15;153941.56;;;14.89;100.00
23059;BME280;30585;51.502;7.218;2022-08-19T01:51:44;153909.19;;;14.76;100.00
23059;BME280;30585;51.502;7.218;2022-08-19T01:54:14;153896.25;;;14.71;100.00
23059;BME280;30585;51.502;7.218;2022-08-19T01:56:58;153926.03;;;14.83;100.00
23059;BME280;30585;51.502;7.218;2022-08-19T01:59:27;153929.91;;;14.85;100.00
23059;BME280;30585;51.502;7.218;2022-08-19T02:01:56;153931.22;;;14.85;100.00
23059;BME280;30585;51.502;7.218;2022-08-19T02:04:24;153872.81;;;14.62;100.00
23059;BME280;30585;51.502;7.218;2022-08-19T02:06:53;153909.19;;;14.76;100.00
23059;BME280;30585;51.502;7.218;2022-08-19T02:09:23;153876.72;;;14.63;100.00
23059;BME280;30585;51.502;7.218;2022-08-19T02:11:51;153919.56;;;14.80;100.00
23059;BME280;30585;51.502;7.218;2022-08-19T02:14:19;153920.84;;;14.81;100.00
23059;BME280;30585;51.502;7.218;2022-08-19T02:16:47;153953.25;;;14.94;100.00
23059;BME280;30585;51.502;7.218;2022-08-19T02:19:16;153888.44;;;14.68;100.00
23059;BME280;30585;51.502;7.218;2022-08-19T02:21:44;153942.91;;;14.90;100.00
23059;BME280;30585;51.502;7.218;2022-08-19T02:24:12;153896.25;;;14.71;100.00
23059;BME280;30585;51.502;7.218;2022-08-19T02:26:41;153935.09;;;14.87;100.00
23059;BME280;30585;51.502;7.218;2022-08-19T02:29:10;153915.66;;;14.79;100.00
23059;BME280;30585;51.502;7.218;2022-08-19T02:31:38;153875.41;;;14.63;100.00
23059;BME280;30585;51.502;7.218;2022-08-19T02:34:06;153915.66;;;14.79;100.00
23059;BME280;30585;51.502;7.218;2022-08-19T02:36:34;153910.44;;;14.77;100.00
23059;BME280;30585;51.502;7.218;2022-08-19T02:39:08;153889.72;;;14.69;100.00
23059;BME280;30585;51.502;7.218;2022-08-19T02:41:35;153910.44;;;14.77;100.00
23059;BME280;30585;51.502;7.218;2022-08-19T02:44:04;153833.97;;;14.46;100.00
23059;BME280;30585;51.502;7.218;2022-08-19T02:46:52;153862.47;;;14.58;100.00
23059;BME280;30585;51.502;7.218;2022-08-19T02:49:22;153898.78;;;14.72;100.00
23059;BME280;30585;51.502;7.218;2022-08-19T02:51:50;153850.81;;;14.53;100.00
23059;BME280;30585;51.502;7.218;2022-08-19T02:56:46;153885.84;;;14.67;100.00
23059;BME280;30585;51.502;7.218;2022-08-19T02:59:15;153835.28;;;14.47;100.00
23059;BME280;30585;51.502;7.218;2022-08-19T03:01:47;153806.75;;;14.36;100.00
23059;BME280;30585;51.502;7.218;2022-08-19T03:04:17;153831.34;;;14.45;100.00
23059;BME280;30585;51.502;7.218;2022-08-19T03:06:46;153808.03;;;14.36;100.00
23059;BME280;30585;51.502;7.218;2022-08-19T03:09:16;153792.50;;;14.30;100.00
23059;BME280;30585;51.502;7.218;2022-08-19T03:11:45;153857.28;;;14.56;100.00
23059;BME280;30585;51.502;7.218;2022-08-19T03:14:19;153832.69;;;14.46;100.00
23059;BME280;30585;51.502;7.218;2022-08-19T03:16:49;153866.34;;;14.59;100.00
23059;BME280;30585;51.502;7.218;2022-08-19T03:19:19;153839.16;;;14.48;100.00
23059;BME280;30585;51.502;7.218;2022-08-19T03:21:47;153875.41;;;14.63;100.00
23059;BME280;30585;51.502;7.218;2022-08-19T03:24:16;153839.16;;;14.48;100.00
23059;BME280;30585;51.502;7.218;2022-08-19T03:26:48;153862.47;;;14.58;100.00
23059;BME280;30585;51.502;7.218;2022-08-19T03:29:18;153840.44;;;14.49;100.00
23059;BME280;30585;51.502;7.218;2022-08-19T03:31:57;153836.56;;;14.47;100.00
23059;BME280;30585;51.502;7.218;2022-08-19T03:34:28;153788.59;;;14.28;100.00
23059;BME280;30585;51.502;7.218;2022-08-19T03:36:59;153796.38;;;14.31;100.00
23059;BME280;30585;51.502;7.218;2022-08-19T03:39:30;153787.31;;;14.28;100.00
23059;BME280;30585;51.502;7.218;2022-08-19T03:41:59;153841.75;;;14.49;100.00
23059;BME280;30585;51.502;7.218;2022-08-19T03:44:50;153764.00;;;14.18;100.00
23059;BME280;30585;51.502;7.218;2022-08-19T03:47:19;153784.72;;;14.27;100.00
23059;BME280;30585;51.502;7.218;2022-08-19T03:49:47;153779.53;;;14.25;100.00
23059;BME280;30585;51.502;7.218;2022-08-19T03:52:15;153840.44;;;14.49;100.00
23059;BME280;30585;51.502;7.218;2022-08-19T03:54:44;153827.50;;;14.44;100.00
23059;BME280;30585;51.502;7.218;2022-08-19T03:57:12;153844.34;;;14.51;100.00
23059;BME280;30585;51.502;7.218;2022-08-19T03:59:41;153775.66;;;14.23;100.00
23059;BME280;30585;51.502;7.218;2022-08-19T04:02:12;153764.00;;;14.18;100.00
23059;BME280;30585;51.502;7.218;2022-08-19T04:04:42;153795.09;;;14.31;100.00
23059;BME280;30585;51.502;7.218;2022-08-19T04:07:12;153827.50;;;14.44;100.00
23059;BME280;30585;51.502;7.218;2022-08-19T04:09:42;153832.69;;;14.46;100.00
23059;BME280;30585;51.502;7.218;2022-08-19T04:12:11;153758.78;;;14.16;100.00
23059;BME280;30585;51.502;7.218;2022-08-19T04:14:40;153819.69;;;14.41;100.00
23059;BME280;30585;51.502;7.218;2022-08-19T04:17:08;153828.75;;;14.44;100.00
23059;BME280;30585;51.502;7.218;2022-08-19T04:19:40;153735.47;;;14.07;100.00
23059;BME280;30585;51.502;7.218;2022-08-19T04:22:09;153758.78;;;14.16;100.00
23059;BME280;30585;51.502;7.218;2022-08-19T04:24:38;153738.06;;;14.08;100.00
23059;BME280;30585;51.502;7.218;2022-08-19T04:27:07;153780.84;;;14.25;100.00
23059;BME280;30585;51.502;7.218;2022-08-19T04:29:35;153773.06;;;14.22;100.00
23059;BME280;30585;51.502;7.218;2022-08-19T04:32:06;153745.88;;;14.11;100.00
23059;BME280;30585;51.502;7.218;2022-08-19T04:34:35;153824.88;;;14.43;100.00
23059;BME280;30585;51.502;7.218;2022-08-19T04:37:25;153776.91;;;14.24;100.00
23059;BME280;30585;51.502;7.218;2022-08-19T04:40:03;153787.31;;;14.28;100.00
23059;BME280;30585;51.502;7.218;2022-08-19T04:42:48;153791.19;;;14.29;100.00
23059;BME280;30585;51.502;7.218;2022-08-19T04:45:17;153885.84;;;14.67;100.00
23059;BME280;30585;51.502;7.218;2022-08-19T04:47:48;153857.28;;;14.56;100.00
23059;BME280;30585;51.502;7.218;2022-08-19T04:50:32;153885.84;;;14.67;100.00
23059;BME280;30585;51.502;7.218;2022-08-19T04:53:02;153861.16;;;14.57;100.00
23059;BME280;30585;51.502;7.218;2022-08-19T04:55:31;153942.91;;;14.90;100.00
23059;BME280;30585;51.502;7.218;2022-08-19T04:58:04;153888.44;;;14.68;100.00
23059;BME280;30585;51.502;7.218;2022-08-19T05:00:33;153972.69;;;15.02;100.00
23059;BME280;30585;51.502;7.218;2022-08-19T05:03:03;153980.50;;;15.05;100.00
23059;BME280;30585;51.502;7.218;2022-08-19T05:05:33;153932.50;;;14.86;100.00
23059;BME280;30585;51.502;7.218;2022-08-19T05:08:13;153990.84;;;15.09;100.00
23059;BME280;30585;51.502;7.218;2022-08-19T05:10:57;154024.56;;;15.22;100.00
23059;BME280;30585;51.502;7.218;2022-08-19T05:13:26;154023.25;;;15.22;100.00
23059;BME280;30585;51.502;7.218;2022-08-19T05:15:56;154014.16;;;15.18;100.00
23059;BME280;30585;51.502;7.218;2022-08-19T05:18:26;154077.72;;;15.43;100.00
23059;BME280;30585;51.502;7.218;2022-08-19T05:21:14;154016.78;;;15.19;100.00
23059;BME280;30585;51.502;7.218;2022-08-19T05:24:02;154098.44;;;15.52;100.00
23059;BME280;30585;51.502;7.218;2022-08-19T05:26:30;154033.63;;;15.26;100.00
23059;BME280;30585;51.502;7.218;2022-08-19T05:28:59;154119.19;;;15.60;100.00
23059;BME280;30585;51.502;7.218;2022-08-19T05:31:27;154127.00;;;15.63;100.00
23059;BME280;30585;51.502;7.218;2022-08-19T05:33:56;154095.84;;;15.51;100.00
23059;BME280;30585;51.502;7.218;2022-08-19T05:36:35;154106.25;;;15.55;100.00
23059;BME280;30585;51.502;7.218;2022-08-19T05:39:06;154132.19;;;15.65;100.00
23059;BME280;30585;51.502;7.218;2022-08-19T05:41:37;154160.72;;;15.77;100.00
23059;BME280;30585;51.502;7.218;2022-08-19T05:44:09;154191.88;;;15.89;100.00
23059;BME280;30585;51.502;7.218;2022-08-19T05:46:38;154221.75;;;16.01;100.00
23059;BME280;30585;51.502;7.218;2022-08-19T05:49:07;154265.84;;;16.18;100.00
23059;BME280;30585;51.502;7.218;2022-08-19T05:51:36;154285.28;;;16.26;100.00
23059;BME280;30585;51.502;7.218;2022-08-19T05:54:08;154352.78;;;16.53;100.00
23059;BME280;30585;51.502;7.218;2022-08-19T05:56:37;154395.56;;;16.70;100.00
23059;BME280;30585;51.502;7.218;2022-08-19T05:59:08;154399.50;;;16.72;100.00
23059;BME280;30585;51.502;7.218;2022-08-19T06:01:40;154465.69;;;16.98;100.00
23059;BME280;30585;51.502;7.218;2022-08-19T06:04:09;154524.16;;;17.21;100.00
23059;BME280;30585;51.502;7.218;2022-08-19T06:06:38;154559.22;;;17.35;100.00
23059;BME280;30585;51.502;7.218;2022-08-19T06:09:10;154581.25;;;17.44;100.00
23059;BME280;30585;51.502;7.218;2022-08-19T06:11:41;154620.25;;;17.59;100.00
23059;BME280;30585;51.502;7.218;2022-08-19T06:14:11;154724.16;;;18.01;100.00
23059;BME280;30585;51.502;7.218;2022-08-19T06:16:43;154685.16;;;17.85;100.00
23059;BME280;30585;51.502;7.218;2022-08-19T06:19:14;154708.53;;;17.95;100.00
23059;BME280;30585;51.502;7.218;2022-08-19T06:21:45;154812.50;;;18.36;100.00
23059;BME280;30585;51.502;7.218;2022-08-19T06:24:17;154821.59;;;18.40;100.00
23059;BME280;30585;51.502;7.218;2022-08-19T06:26:47;154867.03;;;18.58;100.00
23059;BME280;30585;51.502;7.218;2022-08-19T06:29:17;154867.03;;;18.58;100.00
23059;BME280;30585;51.502;7.218;2022-08-19T06:31:52;154867.03;;;18.58;100.00
23059;BME280;30585;51.502;7.218;2022-08-19T06:34:21;154968.47;;;18.98;100.00
23059;BME280;30585;51.502;7.218;2022-08-19T06:36:51;154965.84;;;18.97;100.00
23059;BME280;30585;51.502;7.218;2022-08-19T06:39:23;155078.94;;;19.42;100.00
23059;BME280;30585;51.502;7.218;2022-08-19T06:41:54;155036.03;;;19.25;100.00
23059;BME280;30585;51.502;7.218;2022-08-19T06:44:28;155045.13;;;19.28;100.00
23059;BME280;30585;51.502;7.218;2022-08-19T06:46:58;155037.38;;;19.25;100.00
23059;BME280;30585;51.502;7.218;2022-08-19T06:49:35;155064.66;;;19.36;100.00
23059;BME280;30585;51.502;7.218;2022-08-19T06:52:04;155077.66;;;19.41;100.00
23059;BME280;30585;51.502;7.218;2022-08-19T06:54:35;155212.91;;;19.95;100.00
23059;BME280;30585;51.502;7.218;2022-08-19T06:57:22;155207.72;;;19.93;100.00
23059;BME280;30585;51.502;7.218;2022-08-19T06:59:51;155298.78;;;20.29;100.00
23059;BME280;30585;51.502;7.218;2022-08-19T07:02:19;155336.47;;;20.44;100.00
23059;BME280;30585;51.502;7.218;2022-08-19T07:04:47;155356.00;;;20.52;100.00
23059;BME280;30585;51.502;7.218;2022-08-19T07:07:20;155297.47;;;20.29;100.00
23059;BME280;30585;51.502;7.218;2022-08-19T07:09:50;155313.03;;;20.35;100.00
23059;BME280;30585;51.502;7.218;2022-08-19T07:12:27;155324.75;;;20.39;100.00
23059;BME280;30585;51.502;7.218;2022-08-19T07:15:01;155311.75;;;20.34;100.00
23059;BME280;30585;51.502;7.218;2022-08-19T07:17:30;155315.66;;;20.36;100.00
23059;BME280;30585;51.502;7.218;2022-08-19T07:20:00;155233.72;;;20.03;100.00
23059;BME280;30585;51.502;7.218;2022-08-19T07:22:32;155261.06;;;20.14;100.00
23059;BME280;30585;51.502;7.218;2022-08-19T07:25:02;155331.28;;;20.42;100.00
23059;BME280;30585;51.502;7.218;2022-08-19T07:27:30;155309.16;;;20.33;100.00
23059;BME280;30585;51.502;7.218;2022-08-19T07:29:59;155339.06;;;20.45;100.00
23059;BME280;30585;51.502;7.218;2022-08-19T07:32:27;155372.91;;;20.59;100.00
23059;BME280;30585;51.502;7.218;2022-08-19T07:34:58;155396.31;;;20.68;100.00
23059;BME280;30585;51.502;7.218;2022-08-19T07:37:27;155467.97;;;20.96;100.00
23059;BME280;30585;51.502;7.218;2022-08-19T07:39:59;155512.19;;;21.14;100.00
23059;BME280;30585;51.502;7.218;2022-08-19T07:42:28;155592.84;;;21.46;100.00
23059;BME280;30585;51.502;7.218;2022-08-19T07:44:57;155573.34;;;21.38;99.45
23059;BME280;30585;51.502;7.218;2022-08-19T07:47:25;155660.63;;;21.73;98.39
23059;BME280;30585;51.502;7.218;2022-08-19T07:50:15;155684.06;;;21.82;100.00
23059;BME280;30585;51.502;7.218;2022-08-19T07:52:44;155730.94;;;22.01;100.00
23059;BME280;30585;51.502;7.218;2022-08-19T07:55:16;155790.78;;;22.24;95.12
23059;BME280;30585;51.502;7.218;2022-08-19T07:58:05;155837.72;;;22.43;96.57
23059;BME280;30585;51.502;7.218;2022-08-19T08:00:33;155828.56;;;22.39;94.41
23059;BME280;30585;51.502;7.218;2022-08-19T08:03:02;155895.03;;;22.66;94.25
23059;BME280;30585;51.502;7.218;2022-08-19T08:05:30;155906.75;;;22.70;91.54
23059;BME280;30585;51.502;7.218;2022-08-19T08:08:15;155961.50;;;22.92;91.07
23059;BME280;30585;51.502;7.218;2022-08-19T08:11:10;156054.00;;;23.29;90.79
23059;BME280;30585;51.502;7.218;2022-08-19T08:13:42;156073.56;;;23.37;89.59
23059;BME280;30585;51.502;7.218;2022-08-19T08:16:10;156057.94;;;23.30;87.23
23059;BME280;30585;51.502;7.218;2022-08-19T08:18:39;156106.13;;;23.49;90.35
23059;BME280;30585;51.502;7.218;2022-08-19T08:21:16;156173.91;;;23.76;89.85
23059;BME280;30585;51.502;7.218;2022-08-19T08:23:44;156199.97;;;23.87;86.03
23059;BME280;30585;51.502;7.218;2022-08-19T08:26:11;156243.03;;;24.04;85.18
23059;BME280;30585;51.502;7.218;2022-08-19T08:28:43;156316.03;;;24.33;84.98
23059;BME280;30585;51.502;7.218;2022-08-19T08:31:13;156365.59;;;24.52;85.32
23059;BME280;30585;51.502;7.218;2022-08-19T08:33:41;156408.69;;;24.69;82.36
23059;BME280;30585;51.502;7.218;2022-08-19T08:36:11;156348.63;;;24.46;84.34
23059;BME280;30585;51.502;7.218;2022-08-19T08:38:41;156423.03;;;24.75;79.94
23059;BME280;30585;51.502;7.218;2022-08-19T08:41:16;156330.41;;;24.38;82.30
23059;BME280;30585;51.502;7.218;2022-08-19T08:43:51;156409.97;;;24.70;81.00
23059;BME280;30585;51.502;7.218;2022-08-19T08:46:24;156286.06;;;24.21;81.10
23059;BME280;30585;51.502;7.218;2022-08-19T08:49:02;156322.56;;;24.35;81.40
23059;BME280;30585;51.502;7.218;2022-08-19T08:51:34;156291.31;;;24.23;79.85
23059;BME280;30585;51.502;7.218;2022-08-19T08:54:06;156333.00;;;24.39;80.36
23059;BME280;30585;51.502;7.218;2022-08-19T08:56:37;156202.56;;;23.88;82.50
23059;BME280;30585;51.502;7.218;2022-08-19T08:59:10;156231.31;;;23.99;83.98
23059;BME280;30585;51.502;7.218;2022-08-19T09:01:43;156398.19;;;24.65;78.67
23059;BME280;30585;51.502;7.218;2022-08-19T09:04:12;156395.56;;;24.64;76.21
23059;BME280;30585;51.502;7.218;2022-08-19T09:06:49;156537.78;;;25.20;76.62
23059;BME280;30585;51.502;7.218;2022-08-19T09:09:23;156550.81;;;25.26;75.05
23059;BME280;30585;51.502;7.218;2022-08-19T09:12:04;156456.91;;;24.88;75.33
23059;BME280;30585;51.502;7.218;2022-08-19T09:14:45;156391.69;;;24.63;75.01
23059;BME280;30585;51.502;7.218;2022-08-19T09:17:19;156301.69;;;24.27;77.15
23059;BME280;30585;51.502;7.218;2022-08-19T09:19:56;156447.78;;;24.85;76.28
23059;BME280;30585;51.502;7.218;2022-08-19T09:22:27;156583.47;;;25.39;77.38
23059;BME280;30585;51.502;7.218;2022-08-19T09:24:55;156612.19;;;25.50;75.13
23059;BME280;30585;51.502;7.218;2022-08-19T09:27:25;156707.44;;;25.88;75.48
23059;BME280;30585;51.502;7.218;2022-08-19T09:30:13;156596.53;;;25.44;74.69
23059;BME280;30585;51.502;7.218;2022-08-19T09:32:42;156660.47;;;25.69;73.84
23059;BME280;30585;51.502;7.218;2022-08-19T09:35:10;156591.31;;;25.42;70.45
23059;BME280;30585;51.502;7.218;2022-08-19T09:37:39;156661.75;;;25.70;67.91
23059;BME280;30585;51.502;7.218;2022-08-19T09:40:10;156789.69;;;26.20;67.98
23059;BME280;30585;51.502;7.218;2022-08-19T09:42:38;156792.31;;;26.21;66.34
23059;BME280;30585;51.502;7.218;2022-08-19T09:45:19;156942.47;;;26.81;64.29
23059;BME280;30585;51.502;7.218;2022-08-19T09:47:49;156930.66;;;26.76;65.49
23059;BME280;30585;51.502;7.218;2022-08-19T09:50:21;156849.75;;;26.44;66.53
23059;BME280;30585;51.502;7.218;2022-08-19T09:52:50;156801.44;;;26.25;68.77
23059;BME280;30585;51.502;7.218;2022-08-19T09:55:23;156788.41;;;26.20;67.23
23059;BME280;30585;51.502;7.218;2022-08-19T09:57:59;156806.69;;;26.27;66.58
23059;BME280;30585;51.502;7.218;2022-08-19T10:00:28;156712.66;;;25.90;65.62
23059;BME280;30585;51.502;7.218;2022-08-19T10:02:56;156689.19;;;25.80;64.86
23059;BME280;30585;51.502;7.218;2022-08-19T10:05:24;156638.28;;;25.60;64.46
23059;BME280;30585;51.502;7.218;2022-08-19T10:08:09;156642.22;;;25.62;63.99
23059;BME280;30585;51.502;7.218;2022-08-19T10:10:39;156617.41;;;25.52;63.87
23059;BME280;30585;51.502;7.218;2022-08-19T10:13:13;156677.44;;;25.76;64.12
23059;BME280;30585;51.502;7.218;2022-08-19T10:15:44;156690.47;;;25.81;64.54
23059;BME280;30585;51.502;7.218;2022-08-19T10:18:14;156669.59;;;25.73;63.93
23059;BME280;30585;51.502;7.218;2022-08-19T10:20:43;156629.16;;;25.57;66.59
23059;BME280;30585;51.502;7.218;2022-08-19T10:23:18;156665.69;;;25.71;64.08
23059;BME280;30585;51.502;7.218;2022-08-19T10:25:46;156685.25;;;25.79;63.50
23059;BME280;30585;51.502;7.218;2022-08-19T10:28:15;156699.59;;;25.85;62.98
23059;BME280;30585;51.502;7.218;2022-08-19T10:30:46;156749.19;;;26.04;63.36
23059;BME280;30585;51.502;7.218;2022-08-19T10:33:14;156727.03;;;25.95;61.08
23059;BME280;30585;51.502;7.218;2022-08-19T10:36:04;156789.69;;;26.20;61.48
23059;BME280;30585;51.502;7.218;2022-08-19T10:38:33;156879.75;;;26.56;61.04
23059;BME280;30585;51.502;7.218;2022-08-19T10:41:09;156882.38;;;26.57;60.57
23059;BME280;30585;51.502;7.218;2022-08-19T10:43:37;156853.66;;;26.46;60.07
23059;BME280;30585;51.502;7.218;2022-08-19T10:46:09;156896.75;;;26.63;59.94
23059;BME280;30585;51.502;7.218;2022-08-19T10:48:42;156969.91;;;26.92;60.94
23059;BME280;30585;51.502;7.218;2022-08-19T10:51:11;157001.19;;;27.04;59.92
23059;BME280;30585;51.502;7.218;2022-08-19T10:53:58;157012.94;;;27.09;57.80
23059;BME280;30585;51.502;7.218;2022-08-19T10:56:27;157070.44;;;27.31;55.99
23059;BME280;30585;51.502;7.218;2022-08-19T10:59:09;156742.66;;;26.02;56.38
23059;BME280;30585;51.502;7.218;2022-08-19T11:01:42;156913.69;;;26.69;59.16
23059;BME280;30585;51.502;7.218;2022-08-19T11:04:11;157010.38;;;27.08;60.31
23059;BME280;30585;51.502;7.218;2022-08-19T11:06:40;156935.94;;;26.78;57.63
23059;BME280;30585;51.502;7.218;2022-08-19T11:09:10;157024.72;;;27.13;57.63
23059;BME280;30585;51.502;7.218;2022-08-19T11:11:38;157041.69;;;27.20;57.34
23059;BME280;30585;51.502;7.218;2022-08-19T11:14:07;157079.56;;;27.35;57.22
23059;BME280;30585;51.502;7.218;2022-08-19T11:16:36;157099.16;;;27.43;56.35
23059;BME280;30585;51.502;7.218;2022-08-19T11:19:07;157087.41;;;27.38;55.42
23059;BME280;30585;51.502;7.218;2022-08-19T11:21:37;157005.16;;;27.05;58.20
23059;BME280;30585;51.502;7.218;2022-08-19T11:24:08;157083.47;;;27.36;58.04
23059;BME280;30585;51.502;7.218;2022-08-19T11:26:38;157087.41;;;27.38;55.61
23059;BME280;30585;51.502;7.218;2022-08-19T11:29:08;157208.91;;;27.86;56.16
23059;BME280;30585;51.502;7.218;2022-08-19T11:31:39;157212.84;;;27.88;54.94
23059;BME280;30585;51.502;7.218;2022-08-19T11:34:12;157335.72;;;28.36;50.39
23059;BME280;30585;51.502;7.218;2022-08-19T11:36:43;157168.44;;;27.70;53.41
23059;BME280;30585;51.502;7.218;2022-08-19T11:39:14;157367.03;;;28.49;52.58
23059;BME280;30585;51.502;7.218;2022-08-19T11:41:42;157369.66;;;28.50;54.38
23059;BME280;30585;51.502;7.218;2022-08-19T11:44:10;157249.41;;;28.02;50.44
23059;BME280;30585;51.502;7.218;2022-08-19T11:46:41;157309.56;;;28.26;51.82
23059;BME280;30585;51.502;7.218;2022-08-19T11:49:13;157338.31;;;28.37;49.66
23059;BME280;30585;51.502;7.218;2022-08-19T11:51:42;157466.41;;;28.88;51.22
23059;BME280;30585;51.502;7.218;2022-08-19T11:54:11;157589.31;;;29.36;51.02
23059;BME280;30585;51.502;7.218;2022-08-19T11:56:41;157722.69;;;29.89;49.31
23059;BME280;30585;51.502;7.218;2022-08-19T11:59:09;157467.72;;;28.88;50.17
23059;BME280;30585;51.502;7.218;2022-08-19T12:01:40;157585.41;;;29.35;50.09
23059;BME280;30585;51.502;7.218;2022-08-19T12:04:10;157657.28;;;29.63;47.95
23059;BME280;30585;51.502;7.218;2022-08-19T12:06:40;157714.84;;;29.86;48.67
23059;BME280;30585;51.502;7.218;2022-08-19T12:09:09;157616.81;;;29.47;48.59
23059;BME280;30585;51.502;7.218;2022-08-19T12:11:38;157487.31;;;28.96;49.41
23059;BME280;30585;51.502;7.218;2022-08-19T12:14:09;157275.59;;;28.12;49.20
23059;BME280;30585;51.502;7.218;2022-08-19T12:16:43;157214.13;;;27.88;53.36
23059;BME280;30585;51.502;7.218;2022-08-19T12:19:18;157408.88;;;28.65;51.62
23059;BME280;30585;51.502;7.218;2022-08-19T12:21:50;157248.13;;;28.02;51.85
23059;BME280;30585;51.502;7.218;2022-08-19T12:24:19;157154.09;;;27.64;52.63
23059;BME280;30585;51.502;7.218;2022-08-19T12:26:50;157249.41;;;28.02;51.88
23059;BME280;30585;51.502;7.218;2022-08-19T12:29:19;157346.13;;;28.40;49.37
23059;BME280;30585;51.502;7.218;2022-08-19T12:31:49;157229.78;;;27.94;49.26
23059;BME280;30585;51.502;7.218;2022-08-19T12:34:17;157182.78;;;27.76;49.10
23059;BME280;30585;51.502;7.218;2022-08-19T12:36:46;156956.81;;;26.86;53.72
23059;BME280;30585;51.502;7.218;2022-08-19T12:39:17;157144.91;;;27.61;52.15
23059;BME280;30585;51.502;7.218;2022-08-19T12:41:45;157186.72;;;27.77;50.59
23059;BME280;30585;51.502;7.218;2022-08-19T12:44:20;157238.97;;;27.98;50.68
23059;BME280;30585;51.502;7.218;2022-08-19T12:46:55;157322.63;;;28.31;48.61
23059;BME280;30585;51.502;7.218;2022-08-19T12:49:23;157127.97;;;27.54;50.89
23059;BME280;30585;51.502;7.218;2022-08-19T12:52:11;157270.34;;;28.10;50.03
23059;BME280;30585;51.502;7.218;2022-08-19T12:54:43;157211.53;;;27.87;48.13
23059;BME280;30585;51.502;7.218;2022-08-19T12:57:11;157235.03;;;27.96;49.08
23059;BME280;30585;51.502;7.218;2022-08-19T12:59:38;157274.31;;;28.12;49.00
23059;BME280;30585;51.502;7.218;2022-08-19T13:02:07;157356.59;;;28.44;47.65
23059;BME280;30585;51.502;7.218;2022-08-19T13:04:35;157437.63;;;28.76;46.18
23059;BME280;30585;51.502;7.218;2022-08-19T13:07:07;157404.94;;;28.64;46.96
23059;BME280;30585;51.502;7.218;2022-08-19T13:09:35;157471.63;;;28.90;45.49